ADDS METAR Data INFO
IDs: Format: Raw Decoded Include TAF

Data at: 0714 UTC 24 Jun 2018

KBRD 240653Z AUTO 07003KT 10SM CLR 18/16 A2983 RMK AO2 SLP096 T01830156
KBRD 240553Z AUTO 00000KT 10SM CLR 18/15 A2982 RMK AO2 SLP094 60000 T01830150 10261 20178 402830133 51010
KBRD 240453Z AUTO 00000KT 10SM CLR 18/14 A2982 RMK AO2 SLP092 T01830144
KBRD 240353Z AUTO 00000KT 10SM CLR 19/14 A2980 RMK AO2 SLP087 T01940144
KBRD 240253Z AUTO 00000KT 10SM BKN110 21/14 A2979 RMK AO2 RAB0154E31 SLP083 P0000 60000 T02110139 51018
KBRD 240153Z AUTO 27012G17KT 10SM OVC060 23/15 A2978 RMK AO2 TSB27E51 SLP079 T02280150
KBRD 240133Z AUTO 00000KT 10SM TS SCT055 24/16 A2977 RMK AO2 TSB27 T02440156
KBRD 240053Z AUTO 00000KT 10SM SCT060 25/16 A2976 RMK AO2 SLP071 T02500156
KBRD 232353Z AUTO 19003KT 10SM FEW060 26/14 A2974 RMK AO2 LTG DSNT NE SLP065 T02610144 10283 20261 53001
KBRD 232253Z AUTO 19005KT 10SM FEW055 27/14 A2973 RMK AO2 SLP064 T02720139
KBRD 232153Z AUTO VRB04KT 10SM CLR 28/16 A2974 RMK AO2 SLP065 T02830156
KBRD 232053Z AUTO 16006KT 10SM CLR 27/13 A2974 RMK AO2 SLP065 T02720133 58009
KBRD 231953Z AUTO 22007KT 10SM SCT050 SCT070 28/14 A2975 RMK AO2 LTG DSNT W AND NW SLP070 T02780144
KBRD 231853Z AUTO 23007KT 10SM SCT049 BKN060 28/15 A2976 RMK AO2 SLP071 T02780150
KBRD 231753Z AUTO 20005KT 10SM SCT045 27/15 A2976 RMK AO2 SLP074 T02720150 10272 20167 56005
KBRD 231653Z AUTO VRB06KT 10SM FEW036 SCT065 26/16 A2977 RMK AO2 SLP077 T02610156
KBRD 231553Z AUTO VRB05KT 10SM BKN031 BKN042 24/16 A2977 RMK AO2 SLP077 T02440156
KBRD 231453Z AUTO VRB04KT 10SM FEW040 24/17 A2978 RMK AO2 SLP079 T02390167 50001
KBRD 231353Z AUTO 21004KT 10SM CLR 22/17 A2978 RMK AO2 SLP079 T02170172
KBRD 231253Z AUTO 16003KT 8SM CLR 19/16 A2978 RMK AO2 SLP080 T01890161
KBRD 231153Z AUTO 00000KT 6SM BR CLR 17/14 A2977 RMK AO2 SLP078 T01670144 10172 20133 56006
KBRD 231144Z AUTO 00000KT 4SM BR CLR 16/14 A2978 RMK AO2 T01610139
KBRD 231137Z AUTO 00000KT 2 1/2SM BR CLR 15/13 A2978 RMK AO2 T01500133
KBRD 231110Z AUTO 00000KT 6SM BR CLR 14/13 A2979 RMK AO2 T01440128
KBRD 231103Z AUTO 00000KT 2SM BR CLR 14/13 A2978 RMK AO2 T01390133
KBRD 231101Z AUTO 00000KT 1SM BR CLR 14/13 A2978 RMK AO2 T01440133
KBRD 231053Z AUTO 00000KT 1/4SM FG CLR 14/13 A2978 RMK AO2 SLP081 T01440128
KBRD 231040Z AUTO 00000KT 1/4SM FG CLR 14/13 A2978 RMK AO2 T01390128
KBRD 231033Z AUTO 00000KT 1 1/4SM BR CLR 14/13 A2978 RMK AO2 T01390128
KBRD 231009Z AUTO 00000KT 3SM BR CLR 14/13 A2978 RMK AO2 T01440128
KBRD 230959Z AUTO 00000KT 1 3/4SM BR CLR 14/13 A2978 RMK AO2 VIS 1/2V5 T01440128
KBRD 230953Z AUTO 00000KT 7SM CLR 14/13 A2978 RMK AO2 SLP080 T01440128
KBRD 230923Z AUTO 00000KT 4SM BR CLR 14/13 A2979 RMK AO2 T01390128
KBRD 230915Z AUTO 00000KT 2SM BR CLR 14/12 A2978 RMK AO2 T01390122
KBRD 230908Z AUTO 00000KT 1SM BR CLR 14/12 A2978 RMK AO2 VIS 3/4V2 1/2 T01390122
KBRD 230853Z AUTO 00000KT 1/2SM FG CLR 14/12 A2979 RMK AO2 SLP085 T01390122 50000
KBRD 230845Z AUTO 00000KT 1SM BR CLR 14/13 A2980 RMK AO2 T01390128
KBRD 230826Z AUTO 00000KT 3SM BR CLR 14/13 A2980 RMK AO2 T01390128
KBRD 230822Z AUTO 00000KT 1 1/2SM BR CLR 14/13 A2980 RMK AO2 VIS 1/2V4 T01390128
KBRD 230810Z AUTO 00000KT 3/4SM BR CLR 14/13 A2980 RMK AO2 T01440128
KBRD 230806Z AUTO 00000KT 1 1/2SM BR CLR 14/13 A2980 RMK AO2 T01440128
KBRD 230753Z AUTO 00000KT 8SM CLR 14/13 A2981 RMK AO2 SLP090 T01440128
KBRD 230653Z AUTO 00000KT 7SM CLR 15/14 A2980 RMK AO2 SLP087 T01500139
KBRD 230553Z AUTO 14003KT 10SM CLR 16/13 A2979 RMK AO2 SLP084 T01610133 10256 20150 402720117 58005
KBRD 230453Z AUTO 00000KT 8SM CLR 16/14 A2982 RMK AO2 SLP093 T01610144
KBRD 230353Z AUTO 00000KT 10SM CLR 18/16 A2982 RMK AO2 SLP094 T01830156
KBRD 230253Z AUTO 00000KT 10SM CLR 19/16 A2981 RMK AO2 SLP091 T01890156 53001
KBRD 230153Z AUTO 13004KT 10SM CLR 22/16 A2979 RMK AO2 SLP081 T02170161
KBRD 230053Z AUTO 00000KT 10SM CLR 23/16 A2980 RMK AO2 SLP086 T02330156
KBRD 222353Z AUTO 14004KT 10SM CLR 26/14 A2981 RMK AO2 SLP090 T02560144 10272 20256 56018
KBRD 222253Z AUTO 13005KT 10SM CLR 27/08 A2982 RMK AO2 SLP096 T02670083
KBRD 222153Z AUTO 15006KT 10SM CLR 27/11 A2984 RMK AO2 SLP103 T02670106
KBRD 222053Z AUTO 11006KT 10SM CLR 27/12 A2986 RMK AO2 SLP110 T02720122 58009
KBRD 221953Z AUTO VRB05KT 10SM CLR 27/12 A2988 RMK AO2 SLP115 T02720122